createdAt,value
2022-10-07T00:02:18.740Z,99.90
2022-10-07T00:04:47.009Z,99.90
2022-10-07T00:07:14.544Z,99.90
2022-10-07T00:09:42.088Z,99.90
2022-10-07T00:12:10.430Z,99.90
2022-10-07T00:14:37.964Z,99.90
2022-10-07T00:17:05.557Z,99.90
2022-10-07T00:19:33.064Z,99.90
2022-10-07T00:22:00.588Z,99.90
2022-10-07T00:24:28.113Z,99.90
2022-10-07T00:26:55.679Z,99.90
2022-10-07T00:29:23.202Z,99.90
2022-10-07T00:31:56.298Z,99.90
2022-10-07T00:34:19.043Z,99.90
2022-10-07T00:36:46.565Z,99.90
2022-10-07T00:39:14.871Z,99.90
2022-10-07T00:41:42.454Z,99.90
2022-10-07T00:44:31.423Z,99.90
2022-10-07T00:46:58.967Z,99.90
2022-10-07T00:49:26.502Z,99.90
2022-10-07T00:51:54.027Z,99.90
2022-10-07T00:54:21.571Z,99.90
2022-10-07T00:56:49.106Z,99.90
2022-10-07T00:59:16.652Z,99.90
2022-10-07T01:01:44.309Z,99.90
2022-10-07T01:04:11.731Z,99.90
2022-10-07T01:06:40.033Z,99.90
2022-10-07T01:09:07.590Z,99.90
2022-10-07T01:11:41.180Z,99.90
2022-10-07T01:14:15.546Z,99.90
2022-10-07T01:16:51.876Z,99.90
2022-10-07T01:19:25.040Z,99.90
2022-10-07T01:21:55.252Z,99.90
2022-10-07T01:24:25.497Z,99.90
2022-10-07T01:26:56.684Z,99.90
2022-10-07T01:29:24.208Z,99.90
2022-10-07T01:32:03.393Z,99.90
2022-10-07T01:34:30.906Z,99.90
2022-10-07T01:36:58.431Z,99.90
2022-10-07T01:39:25.976Z,99.90
2022-10-07T01:41:53.506Z,99.90
2022-10-07T01:44:21.026Z,99.90
2022-10-07T01:46:49.338Z,99.90
2022-10-07T01:49:16.873Z,99.90
2022-10-07T01:51:44.428Z,99.90
2022-10-07T01:54:36.046Z,99.90
2022-10-07T01:57:19.062Z,99.90
2022-10-07T01:59:47.373Z,99.90
2022-10-07T02:02:35.751Z,99.90
2022-10-07T02:05:15.309Z,99.90
2022-10-07T02:07:43.119Z,99.90
2022-10-07T02:10:22.094Z,99.90
2022-10-07T02:12:49.629Z,99.90
2022-10-07T02:15:17.163Z,99.90
2022-10-07T02:17:44.896Z,99.90
2022-10-07T02:20:12.253Z,99.90
2022-10-07T02:22:40.557Z,99.90
2022-10-07T02:25:08.134Z,99.90
2022-10-07T02:27:35.664Z,99.90
2022-10-07T02:30:03.192Z,99.90
2022-10-07T02:32:30.754Z,99.90
2022-10-07T02:34:59.058Z,99.90
2022-10-07T02:37:26.583Z,99.90
2022-10-07T02:39:54.137Z,99.90
2022-10-07T02:42:40.310Z,99.90
2022-10-07T02:45:10.857Z,99.90
2022-10-07T02:47:41.243Z,99.90
2022-10-07T02:50:09.403Z,99.90
2022-10-07T02:52:36.957Z,99.90
2022-10-07T02:55:04.482Z,99.90
2022-10-07T02:57:32.009Z,99.90
2022-10-07T02:59:59.652Z,99.90
2022-10-07T03:02:32.640Z,99.90
2022-10-07T03:05:00.179Z,99.90
2022-10-07T03:07:27.759Z,99.90
2022-10-07T03:09:55.285Z,99.90
2022-10-07T03:12:23.580Z,99.90
2022-10-07T03:14:51.121Z,99.90
2022-10-07T03:17:19.434Z,99.90
2022-10-07T03:19:46.959Z,99.90
2022-10-07T03:22:15.271Z,99.90
2022-10-07T03:24:42.799Z,99.90
2022-10-07T03:27:11.141Z,99.90
2022-10-07T03:29:38.653Z,99.90
2022-10-07T03:32:06.218Z,99.90
2022-10-07T03:34:33.733Z,99.90
2022-10-07T03:37:02.064Z,99.90
2022-10-07T03:39:29.609Z,99.90
2022-10-07T03:41:57.161Z,99.90
2022-10-07T03:44:25.525Z,99.90
2022-10-07T03:46:53.170Z,99.90
2022-10-07T03:49:20.609Z,99.90
2022-10-07T03:51:48.179Z,99.90
2022-10-07T03:54:15.707Z,99.90
2022-10-07T03:56:43.229Z,99.90
2022-10-07T03:59:10.795Z,99.90
2022-10-07T04:01:38.414Z,99.90
2022-10-07T04:04:05.865Z,99.90
2022-10-07T04:06:33.438Z,99.90
2022-10-07T04:09:00.963Z,99.90
2022-10-07T04:11:28.486Z,99.90
2022-10-07T04:13:56.041Z,99.90
2022-10-07T04:16:23.619Z,99.90
2022-10-07T04:18:51.868Z,99.90
2022-10-07T04:21:20.368Z,99.90
2022-10-07T04:23:47.904Z,99.90
2022-10-07T04:26:15.437Z,99.90
2022-10-07T04:28:43.048Z,99.90
2022-10-07T04:31:10.587Z,99.90
2022-10-07T04:33:41.135Z,99.90
2022-10-07T04:36:08.711Z,99.90
2022-10-07T04:38:36.232Z,99.90
2022-10-07T04:41:03.758Z,99.90
2022-10-07T04:43:31.335Z,99.90
2022-10-07T04:46:02.336Z,99.90
2022-10-07T04:48:29.867Z,99.90
2022-10-07T04:50:57.453Z,99.90
2022-10-07T04:53:24.987Z,99.90
2022-10-07T04:55:52.545Z,99.90
2022-10-07T04:58:20.104Z,99.90
2022-10-07T05:00:50.701Z,99.90
2022-10-07T05:03:18.889Z,99.90
2022-10-07T05:05:46.471Z,99.90
2022-10-07T05:08:14.005Z,99.90
2022-10-07T05:10:41.540Z,99.90
2022-10-07T05:13:09.128Z,99.90
2022-10-07T05:15:36.658Z,99.90
2022-10-07T05:18:04.184Z,99.90
2022-10-07T05:20:31.747Z,99.90
2022-10-07T05:22:59.272Z,99.90
2022-10-07T05:25:26.797Z,99.90
2022-10-07T05:27:55.171Z,99.90
2022-10-07T05:30:22.705Z,99.90
2022-10-07T05:32:50.257Z,99.90
2022-10-07T05:35:17.823Z,99.90
2022-10-07T05:37:50.112Z,99.90
2022-10-07T05:40:12.931Z,99.90
2022-10-07T05:42:40.535Z,99.90
2022-10-07T05:45:08.995Z,99.90
2022-10-07T05:47:36.521Z,99.90
2022-10-07T05:50:04.099Z,99.90
2022-10-07T05:52:31.629Z,99.90
2022-10-07T05:54:59.144Z,99.90
2022-10-07T05:57:27.476Z,99.90
2022-10-07T05:59:55.012Z,99.90
2022-10-07T06:02:22.689Z,99.90
2022-10-07T06:04:50.179Z,99.90
2022-10-07T06:07:21.982Z,99.90
2022-10-07T06:10:04.232Z,99.90
2022-10-07T06:12:49.627Z,99.90
2022-10-07T06:15:17.192Z,99.90
2022-10-07T06:17:45.062Z,99.90
2022-10-07T06:20:12.262Z,99.90
2022-10-07T06:22:39.845Z,99.90
2022-10-07T06:25:07.596Z,99.90
2022-10-07T06:27:35.142Z,99.90
2022-10-07T06:30:02.745Z,99.90
2022-10-07T06:32:30.269Z,99.90
2022-10-07T06:34:57.845Z,99.90
2022-10-07T06:37:25.368Z,99.90
2022-10-07T06:39:57.393Z,99.90
2022-10-07T06:42:21.206Z,99.90
2022-10-07T06:44:48.770Z,99.90
2022-10-07T06:47:16.295Z,99.90
2022-10-07T06:49:44.601Z,99.90
2022-10-07T06:52:12.172Z,99.90
2022-10-07T06:54:39.697Z,99.90
2022-10-07T06:57:26.436Z,99.90
2022-10-07T06:59:35.555Z,99.90
2022-10-07T07:02:03.161Z,99.90
2022-10-07T07:04:31.403Z,99.90
2022-10-07T07:06:58.965Z,99.90
2022-10-07T07:09:26.579Z,99.90
2022-10-07T07:11:56.636Z,99.90
2022-10-07T07:14:23.195Z,99.90
2022-10-07T07:16:50.777Z,99.90
2022-10-07T07:19:18.254Z,99.90
2022-10-07T07:21:49.058Z,99.90
2022-10-07T07:24:14.125Z,99.90
2022-10-07T07:26:41.666Z,99.90
2022-10-07T07:29:09.240Z,99.90
2022-10-07T07:31:36.765Z,99.90
2022-10-07T07:34:05.068Z,99.90
2022-10-07T07:36:32.632Z,99.90
2022-10-07T07:39:00.166Z,99.90
2022-10-07T07:41:30.192Z,99.90
2022-10-07T07:43:57.767Z,99.90
2022-10-07T07:46:25.400Z,99.90
2022-10-07T07:48:52.836Z,99.90
2022-10-07T07:51:20.420Z,99.90
2022-10-07T07:53:48.713Z,99.90
2022-10-07T07:56:16.257Z,99.90
2022-10-07T07:58:43.852Z,99.90
2022-10-07T08:01:11.409Z,99.90
2022-10-07T08:03:38.990Z,99.90
2022-10-07T08:06:06.567Z,99.90
2022-10-07T08:08:34.090Z,99.90
2022-10-07T08:11:16.759Z,99.90
2022-10-07T08:13:45.051Z,99.90
2022-10-07T08:16:12.603Z,99.90
2022-10-07T08:18:40.139Z,99.90
2022-10-07T08:21:10.087Z,99.90
2022-10-07T08:23:37.651Z,99.90
2022-10-07T08:26:05.234Z,99.90
2022-10-07T08:28:32.826Z,99.90
2022-10-07T08:31:08.875Z,99.90
2022-10-07T08:33:36.356Z,99.90
2022-10-07T08:36:04.649Z,99.90
2022-10-07T08:38:32.190Z,99.90
2022-10-07T08:41:18.248Z,99.90
2022-10-07T08:43:45.794Z,99.90
2022-10-07T08:46:13.368Z,99.90
2022-10-07T08:48:40.902Z,99.90
2022-10-07T08:51:26.790Z,99.90
2022-10-07T08:53:54.383Z,99.90
2022-10-07T08:56:21.919Z,99.90
2022-10-07T08:58:49.433Z,99.90
2022-10-07T09:01:48.092Z,99.90
2022-10-07T09:04:49.616Z,99.90
2022-10-07T09:07:19.928Z,99.90
2022-10-07T09:09:50.341Z,99.90
2022-10-07T09:12:17.866Z,99.90
2022-10-07T09:14:45.436Z,99.90
2022-10-07T09:17:13.739Z,99.90
2022-10-07T09:19:50.154Z,99.90
2022-10-07T09:22:23.608Z,99.90
2022-10-07T09:24:51.142Z,99.90
2022-10-07T09:27:19.483Z,99.90
2022-10-07T09:29:47.029Z,99.90
2022-10-07T09:32:14.563Z,99.90
2022-10-07T09:34:42.137Z,99.90
2022-10-07T09:37:15.847Z,99.90
2022-10-07T09:39:43.391Z,99.90
2022-10-07T09:42:11.009Z,99.90
2022-10-07T09:44:38.499Z,99.90
2022-10-07T09:47:24.575Z,99.90
2022-10-07T09:49:52.869Z,99.90
2022-10-07T09:52:20.393Z,99.90
2022-10-07T09:54:47.977Z,99.90
2022-10-07T09:57:28.134Z,99.90
2022-10-07T10:00:13.568Z,99.90
2022-10-07T10:02:41.188Z,99.90
2022-10-07T10:05:23.466Z,99.90
2022-10-07T10:07:57.746Z,99.90
2022-10-07T10:10:25.293Z,99.90
2022-10-07T10:12:52.951Z,99.90
2022-10-07T10:15:23.382Z,99.90
2022-10-07T10:17:50.929Z,99.90
2022-10-07T10:20:24.615Z,99.90
2022-10-07T10:22:52.154Z,99.90
2022-10-07T10:25:57.110Z,99.90
2022-10-07T10:28:43.219Z,99.90
2022-10-07T10:31:10.749Z,99.90
2022-10-07T10:33:39.049Z,99.90
2022-10-07T10:36:06.570Z,99.90
2022-10-07T10:38:56.167Z,99.90
2022-10-07T10:41:41.859Z,99.90
2022-10-07T10:44:21.090Z,99.90
2022-10-07T10:46:54.413Z,99.90
2022-10-07T10:49:30.756Z,99.90
2022-10-07T10:52:19.427Z,99.90
2022-10-07T10:54:59.565Z,99.90
2022-10-07T10:57:51.774Z,99.90
2022-10-07T11:00:21.819Z,99.90
2022-10-07T11:02:52.162Z,99.90
2022-10-07T11:05:31.650Z,99.90
2022-10-07T11:08:02.827Z,99.90
2022-10-07T11:10:42.166Z,99.90
2022-10-07T11:13:40.807Z,99.90
2022-10-07T11:16:16.608Z,99.90
2022-10-07T11:19:03.030Z,99.90
2022-10-07T11:21:39.653Z,99.90
2022-10-07T11:24:35.133Z,99.90
2022-10-07T11:27:08.298Z,99.90
2022-10-07T11:30:03.285Z,99.90
2022-10-07T11:32:36.598Z,99.90
2022-10-07T11:35:16.135Z,99.90
2022-10-07T11:37:52.699Z,99.90
2022-10-07T11:40:20.214Z,99.90
2022-10-07T11:42:48.609Z,99.90
2022-10-07T11:45:18.740Z,99.90
2022-10-07T11:47:49.465Z,99.90
2022-10-07T11:50:22.734Z,99.90
2022-10-07T11:52:51.084Z,99.90
2022-10-07T11:55:30.362Z,99.90
2022-10-07T11:57:57.927Z,99.90
2022-10-07T12:00:31.173Z,99.90
2022-10-07T12:03:17.058Z,99.90
2022-10-07T12:05:50.770Z,99.90
2022-10-07T12:08:36.431Z,99.60
2022-10-07T12:11:12.704Z,99.00
2022-10-07T12:13:43.256Z,98.70
2022-10-07T12:16:32.263Z,97.30
2022-10-07T12:19:06.791Z,97.20
2022-10-07T12:22:05.001Z,97.20
2022-10-07T12:24:35.534Z,97.30
2022-10-07T12:27:08.869Z,97.10
2022-10-07T12:29:36.394Z,97.10
2022-10-07T12:32:04.060Z,96.20
2022-10-07T12:34:34.515Z,95.50
2022-10-07T12:37:20.217Z,95.60
2022-10-07T12:39:47.761Z,95.40
2022-10-07T12:42:15.286Z,94.80
2022-10-07T12:44:45.715Z,94.50
2022-10-07T12:47:18.525Z,94.00
2022-10-07T12:49:46.751Z,94.00
2022-10-07T12:52:14.346Z,93.60
2022-10-07T12:54:48.231Z,92.60
2022-10-07T12:57:21.368Z,92.60
2022-10-07T13:00:07.671Z,92.30
2022-10-07T13:02:40.955Z,92.10
2022-10-07T13:05:29.610Z,91.80
2022-10-07T13:08:24.329Z,91.40
2022-10-07T13:11:12.965Z,91.50
2022-10-07T13:13:52.078Z,90.80
2022-10-07T13:16:23.091Z,90.40
2022-10-07T13:18:53.489Z,90.40
2022-10-07T13:21:24.012Z,90.50
2022-10-07T13:23:51.513Z,90.60
2022-10-07T13:26:19.825Z,90.90
2022-10-07T13:28:47.482Z,90.90
2022-10-07T13:31:26.996Z,91.00
2022-10-07T13:33:54.500Z,90.70
2022-10-07T13:36:24.833Z,90.60
2022-10-07T13:38:52.356Z,90.80
2022-10-07T13:41:25.631Z,90.50
2022-10-07T13:43:53.934Z,90.50
2022-10-07T13:46:24.502Z,90.50
2022-10-07T13:48:52.450Z,90.50
2022-10-07T13:51:25.569Z,90.70
2022-10-07T13:54:01.778Z,91.10
2022-10-07T13:56:38.310Z,91.20
2022-10-07T13:59:05.826Z,91.20
2022-10-07T14:01:33.496Z,91.00
2022-10-07T14:04:10.526Z,90.60
2022-10-07T14:06:41.713Z,90.20
2022-10-07T14:09:18.394Z,90.20
2022-10-07T14:11:45.929Z,89.80
2022-10-07T14:14:19.361Z,89.10
2022-10-07T14:16:46.946Z,88.40
2022-10-07T14:19:21.158Z,88.00
2022-10-07T14:21:47.784Z,88.00
2022-10-07T14:24:15.332Z,87.40
2022-10-07T14:26:42.865Z,86.60
2022-10-07T14:29:34.582Z,84.80
2022-10-07T14:32:38.360Z,82.10
2022-10-07T14:35:21.441Z,81.90
2022-10-07T14:37:48.958Z,81.90
2022-10-07T14:40:19.742Z,82.00
2022-10-07T14:42:48.650Z,82.90
2022-10-07T14:45:15.736Z,83.90
2022-10-07T14:47:43.272Z,84.50
2022-10-07T14:50:11.691Z,83.90
2022-10-07T14:52:44.286Z,83.80
2022-10-07T14:55:06.928Z,83.30
2022-10-07T14:57:34.523Z,83.40
2022-10-07T15:00:02.066Z,83.30
2022-10-07T15:02:29.592Z,82.70
2022-10-07T15:04:57.267Z,82.50
2022-10-07T15:07:24.719Z,81.80
2022-10-07T15:09:52.294Z,83.30
2022-10-07T15:12:19.869Z,82.50
2022-10-07T15:14:47.404Z,81.80
2022-10-07T15:17:15.073Z,80.90
2022-10-07T15:19:43.447Z,80.50
2022-10-07T15:22:10.983Z,80.70
2022-10-07T15:24:38.517Z,81.20
2022-10-07T15:27:06.101Z,82.00
2022-10-07T15:29:33.621Z,81.40
2022-10-07T15:32:01.929Z,82.70
2022-10-07T15:34:29.551Z,82.70
2022-10-07T15:36:57.854Z,81.80
2022-10-07T15:39:26.148Z,81.30
2022-10-07T15:41:53.751Z,81.30
2022-10-07T15:44:21.394Z,81.20
2022-10-07T15:46:48.930Z,81.70
2022-10-07T15:49:19.530Z,81.10
2022-10-07T15:51:47.818Z,81.30
2022-10-07T15:54:15.365Z,81.20
2022-10-07T15:56:43.712Z,80.40
2022-10-07T15:59:11.292Z,80.30
2022-10-07T16:01:38.877Z,79.50
2022-10-07T16:04:06.418Z,79.10
2022-10-07T16:06:34.739Z,79.50
2022-10-07T16:09:02.295Z,79.50
2022-10-07T16:11:29.861Z,78.80
2022-10-07T16:13:57.383Z,79.10
2022-10-07T16:16:24.937Z,79.40
2022-10-07T16:18:52.533Z,80.40
2022-10-07T16:21:20.116Z,80.50
2022-10-07T16:23:47.760Z,80.60
2022-10-07T16:26:18.111Z,81.60
2022-10-07T16:29:03.593Z,84.50
2022-10-07T16:31:31.219Z,85.70
2022-10-07T16:33:58.693Z,85.40
2022-10-07T16:36:26.227Z,85.80
2022-10-07T16:38:53.791Z,86.00
2022-10-07T16:41:21.329Z,87.20
2022-10-07T16:43:48.854Z,88.40
2022-10-07T16:46:16.504Z,89.70
2022-10-07T16:48:43.960Z,90.40
2022-10-07T16:51:11.505Z,91.10
2022-10-07T16:53:39.098Z,92.00
2022-10-07T16:56:07.401Z,92.90
2022-10-07T16:58:34.916Z,92.90
2022-10-07T17:01:02.513Z,93.30
2022-10-07T17:03:30.831Z,94.20
2022-10-07T17:05:58.328Z,94.20
2022-10-07T17:08:26.670Z,95.20
2022-10-07T17:10:54.195Z,95.10
2022-10-07T17:13:21.730Z,95.70
2022-10-07T17:15:52.642Z,96.70
2022-10-07T17:18:18.396Z,97.10
2022-10-07T17:20:48.598Z,97.10
2022-10-07T17:23:16.929Z,98.20
2022-10-07T17:25:44.484Z,98.20
2022-10-07T17:28:14.478Z,98.60
2022-10-07T17:30:42.793Z,99.50
2022-10-07T17:33:10.318Z,99.40
2022-10-07T17:35:37.853Z,99.80
2022-10-07T17:38:06.185Z,99.90
2022-10-07T17:40:33.731Z,99.90
2022-10-07T17:43:01.266Z,99.90
2022-10-07T17:45:28.841Z,99.90
2022-10-07T17:47:56.364Z,99.90
2022-10-07T17:50:24.656Z,99.90
2022-10-07T17:52:52.231Z,99.90
2022-10-07T17:55:19.794Z,99.90
2022-10-07T17:57:48.330Z,99.90
2022-10-07T18:00:15.623Z,99.90
2022-10-07T18:02:43.148Z,99.90
2022-10-07T18:05:11.450Z,99.90
2022-10-07T18:07:39.042Z,99.90
2022-10-07T18:10:06.619Z,99.90
2022-10-07T18:12:52.634Z,99.90
2022-10-07T18:15:20.986Z,99.90
2022-10-07T18:17:48.866Z,99.90
2022-10-07T18:20:16.095Z,99.90
2022-10-07T18:22:43.640Z,99.90
2022-10-07T18:25:11.175Z,99.90
2022-10-07T18:27:38.750Z,99.90
2022-10-07T18:30:06.422Z,99.90
2022-10-07T18:32:33.959Z,99.90
2022-10-07T18:35:01.543Z,99.90
2022-10-07T18:37:29.054Z,99.90
2022-10-07T18:39:56.591Z,99.90
2022-10-07T18:42:24.174Z,99.90
2022-10-07T18:44:51.727Z,99.90
2022-10-07T18:47:20.041Z,99.90
2022-10-07T18:49:47.624Z,99.90
2022-10-07T18:52:15.216Z,99.90
2022-10-07T18:54:42.703Z,99.90
2022-10-07T18:57:10.280Z,99.90
2022-10-07T18:59:37.815Z,99.90
2022-10-07T19:02:05.418Z,99.90
2022-10-07T19:04:32.951Z,99.90
2022-10-07T19:07:00.476Z,99.90
2022-10-07T19:09:28.781Z,99.90
2022-10-07T19:11:56.333Z,99.90
2022-10-07T19:14:23.859Z,99.90
2022-10-07T19:16:51.447Z,99.90
2022-10-07T19:19:18.949Z,99.90
2022-10-07T19:21:49.205Z,99.90
2022-10-07T19:24:17.492Z,99.90
2022-10-07T19:26:45.838Z,99.90
2022-10-07T19:29:13.361Z,99.90
2022-10-07T19:31:40.940Z,99.90
2022-10-07T19:34:08.472Z,99.90
2022-10-07T19:36:35.994Z,99.90
2022-10-07T19:39:04.315Z,99.90
2022-10-07T19:41:31.880Z,99.90
2022-10-07T19:43:59.425Z,99.90
2022-10-07T19:46:26.950Z,99.90
2022-10-07T19:48:55.292Z,99.90
2022-10-07T19:51:22.826Z,99.90
2022-10-07T19:53:50.362Z,99.90
2022-10-07T19:56:20.761Z,99.90
2022-10-07T19:58:51.784Z,99.90
2022-10-07T20:01:19.350Z,99.90
2022-10-07T20:03:46.872Z,99.90
2022-10-07T20:06:14.405Z,99.90
2022-10-07T20:08:44.638Z,99.90
2022-10-07T20:11:12.251Z,99.90
2022-10-07T20:13:39.777Z,99.90
2022-10-07T20:16:22.560Z,99.90
2022-10-07T20:18:52.757Z,99.90
2022-10-07T20:21:20.282Z,99.90
2022-10-07T20:23:47.835Z,99.90
2022-10-07T20:26:15.433Z,99.90
2022-10-07T20:28:42.960Z,99.90
2022-10-07T20:31:11.237Z,99.90
2022-10-07T20:33:41.431Z,99.90
2022-10-07T20:36:08.969Z,99.90
2022-10-07T20:38:54.501Z,99.90
2022-10-07T20:41:43.056Z,99.90
2022-10-07T20:44:10.619Z,99.90
2022-10-07T20:46:38.127Z,99.90
2022-10-07T20:49:05.649Z,99.90
2022-10-07T20:51:33.224Z,99.90
2022-10-07T20:54:01.540Z,99.90
2022-10-07T20:56:29.061Z,99.90
2022-10-07T20:58:57.384Z,99.90
2022-10-07T21:01:24.972Z,99.90
2022-10-07T21:03:52.454Z,99.90
2022-10-07T21:06:20.785Z,99.90
2022-10-07T21:08:48.382Z,99.90
2022-10-07T21:11:15.914Z,99.90
2022-10-07T21:13:43.478Z,99.90
2022-10-07T21:16:11.041Z,99.90
2022-10-07T21:18:38.568Z,99.90
2022-10-07T21:21:06.142Z,99.90
2022-10-07T21:23:33.667Z,99.90
2022-10-07T21:26:01.203Z,99.90
2022-10-07T21:28:29.626Z,99.90
2022-10-07T21:30:57.124Z,99.90
2022-10-07T21:33:24.613Z,99.90
2022-10-07T21:35:52.197Z,99.90
2022-10-07T21:38:19.742Z,99.90
2022-10-07T21:40:47.257Z,99.90
2022-10-07T21:43:14.832Z,99.90
2022-10-07T21:45:43.143Z,99.90
2022-10-07T21:48:10.658Z,99.90
2022-10-07T21:50:39.001Z,99.90
2022-10-07T21:53:06.535Z,99.90
2022-10-07T21:55:34.070Z,99.90
2022-10-07T21:58:02.403Z,99.90
2022-10-07T22:00:29.957Z,99.90
2022-10-07T22:02:57.508Z,99.90
2022-10-07T22:05:25.037Z,99.90
2022-10-07T22:08:11.112Z,99.90
2022-10-07T22:10:39.454Z,99.90
2022-10-07T22:13:06.988Z,99.90
2022-10-07T22:15:37.460Z,99.90
2022-10-07T22:18:04.972Z,99.90
2022-10-07T22:20:32.504Z,99.90
2022-10-07T22:23:00.780Z,99.90
2022-10-07T22:25:28.334Z,99.90
2022-10-07T22:27:56.628Z,99.90
2022-10-07T22:30:24.162Z,99.90
2022-10-07T22:32:52.513Z,99.90
2022-10-07T22:35:28.811Z,99.90
2022-10-07T22:37:58.813Z,99.90
2022-10-07T22:40:26.332Z,99.90
2022-10-07T22:42:53.858Z,99.90
2022-10-07T22:45:21.432Z,99.90
2022-10-07T22:47:48.957Z,99.90
2022-10-07T22:50:17.240Z,99.90
2022-10-07T22:52:45.109Z,99.90
2022-10-07T22:55:12.329Z,99.90
2022-10-07T22:57:39.834Z,99.90
2022-10-07T23:00:07.507Z,99.90
2022-10-07T23:02:35.127Z,99.90
2022-10-07T23:05:02.586Z,99.90
2022-10-07T23:07:30.898Z,99.90
2022-10-07T23:09:58.426Z,99.90
2022-10-07T23:12:26.717Z,99.90
2022-10-07T23:14:54.272Z,99.90
2022-10-07T23:17:21.806Z,99.90
2022-10-07T23:19:50.098Z,99.90
2022-10-07T23:22:17.654Z,99.90
2022-10-07T23:24:45.946Z,99.90
2022-10-07T23:27:13.482Z,99.90
2022-10-07T23:29:41.804Z,99.90
2022-10-07T23:32:09.318Z,99.90
2022-10-07T23:34:37.621Z,99.90
2022-10-07T23:37:05.197Z,99.90
2022-10-07T23:39:32.720Z,99.90
2022-10-07T23:42:01.004Z,99.90
2022-10-07T23:44:28.577Z,99.90
2022-10-07T23:46:56.213Z,99.90
2022-10-07T23:49:24.405Z,99.90
2022-10-07T23:51:51.969Z,99.90
2022-10-07T23:54:19.505Z,99.90
2022-10-07T23:56:47.797Z,99.90
2022-10-07T23:59:15.372Z,99.90
